createdAt,value
2024-03-25T00:02:47.883Z,6.40
2024-03-25T00:05:53.408Z,6.60
2024-03-25T00:08:58.672Z,7.00
2024-03-25T00:12:05.555Z,6.50
2024-03-25T00:15:11.955Z,6.20
2024-03-25T00:18:18.743Z,5.70
2024-03-25T00:21:25.500Z,5.90
2024-03-25T00:24:30.894Z,6.00
2024-03-25T00:27:36.776Z,5.60
2024-03-25T00:30:42.808Z,6.30
2024-03-25T00:33:48.074Z,6.20
2024-03-25T00:36:54.532Z,6.60
2024-03-25T00:39:59.790Z,6.10
2024-03-25T00:43:05.839Z,5.50
2024-03-25T00:46:11.678Z,6.50
2024-03-25T00:49:17.323Z,6.60
2024-03-25T00:52:22.648Z,5.40
2024-03-25T00:55:27.971Z,5.60
2024-03-25T00:58:33.597Z,6.30
2024-03-25T01:01:40.054Z,5.40
2024-03-25T01:04:45.377Z,5.80
2024-03-25T01:07:50.979Z,5.50
2024-03-25T01:10:56.864Z,6.20
2024-03-25T01:14:02.385Z,6.20
2024-03-25T01:17:08.116Z,6.00
2024-03-25T01:20:15.490Z,6.50
2024-03-25T01:23:21.457Z,7.50
2024-03-25T01:26:26.771Z,5.50
2024-03-25T01:29:32.374Z,5.10
2024-03-25T01:32:37.663Z,5.20
2024-03-25T01:35:42.953Z,5.20
2024-03-25T01:38:48.295Z,5.70
2024-03-25T01:41:53.603Z,6.60
2024-03-25T01:44:59.595Z,6.30
2024-03-25T01:48:07.277Z,6.30
2024-03-25T01:51:12.807Z,8.30
2024-03-25T01:54:18.360Z,6.20
2024-03-25T01:57:24.485Z,5.80
2024-03-25T02:00:30.567Z,5.80
2024-03-25T02:03:36.020Z,4.90
2024-03-25T02:06:42.451Z,5.70
2024-03-25T02:09:48.765Z,5.40
2024-03-25T02:12:54.922Z,5.00
2024-03-25T02:16:00.918Z,4.90
2024-03-25T02:19:06.602Z,5.30
2024-03-25T02:22:12.027Z,5.60
2024-03-25T02:25:19.739Z,5.10
2024-03-25T02:28:25.562Z,5.40
2024-03-25T02:31:31.464Z,4.80
2024-03-25T02:34:36.904Z,4.70
2024-03-25T02:37:42.483Z,5.40
2024-03-25T02:40:48.199Z,5.20
2024-03-25T02:43:53.643Z,5.60
2024-03-25T02:46:59.644Z,5.60
2024-03-25T02:50:05.558Z,5.50
2024-03-25T02:53:11.118Z,5.40
2024-03-25T02:56:16.774Z,4.60
2024-03-25T02:59:22.222Z,5.30
2024-03-25T03:02:27.675Z,4.70
2024-03-25T03:05:33.784Z,5.50
2024-03-25T03:08:39.424Z,4.70
2024-03-25T03:11:44.650Z,4.60
2024-03-25T03:14:50.604Z,4.90
2024-03-25T03:17:55.997Z,6.60
2024-03-25T03:21:02.047Z,4.70
2024-03-25T03:24:09.066Z,5.00
2024-03-25T03:27:14.673Z,5.10
2024-03-25T03:30:20.067Z,4.20
2024-03-25T03:33:27.300Z,3.90
2024-03-25T03:36:32.517Z,5.00
2024-03-25T03:39:38.182Z,4.50
2024-03-25T03:42:43.524Z,4.80
2024-03-25T03:45:48.931Z,4.10
2024-03-25T03:48:54.253Z,4.40
2024-03-25T03:51:59.906Z,4.50
2024-03-25T03:55:06.092Z,5.00
2024-03-25T03:58:11.378Z,4.10
2024-03-25T04:01:20.119Z,3.70
2024-03-25T04:04:25.564Z,3.60
2024-03-25T04:07:31.810Z,4.10
2024-03-25T04:10:38.489Z,4.30
2024-03-25T04:13:44.429Z,4.40
2024-03-25T04:16:49.787Z,4.10
2024-03-25T04:19:56.629Z,4.60
2024-03-25T04:23:02.240Z,5.00
2024-03-25T04:26:09.845Z,5.10
2024-03-25T04:29:17.112Z,4.00
2024-03-25T04:32:22.357Z,4.20
2024-03-25T04:35:27.709Z,4.50
2024-03-25T04:38:33.758Z,5.10
2024-03-25T04:41:39.062Z,4.10
2024-03-25T04:44:44.590Z,3.90
2024-03-25T04:47:49.789Z,4.10
2024-03-25T04:50:55.258Z,5.00
2024-03-25T04:54:02.701Z,4.50
2024-03-25T04:57:08.501Z,4.50
2024-03-25T05:00:15.987Z,4.80
2024-03-25T05:03:21.226Z,5.00
2024-03-25T05:06:26.663Z,5.20
2024-03-25T05:09:32.044Z,5.80
2024-03-25T05:12:37.583Z,5.60
2024-03-25T05:15:43.016Z,5.90
2024-03-25T05:18:49.085Z,5.40
2024-03-25T05:21:54.335Z,5.40
2024-03-25T05:24:59.931Z,5.10
2024-03-25T05:28:05.577Z,5.30
2024-03-25T05:31:11.218Z,5.30
2024-03-25T05:34:16.607Z,6.10
2024-03-25T05:37:22.141Z,4.80
2024-03-25T05:40:27.441Z,5.00
2024-03-25T05:43:32.916Z,5.40
2024-03-25T05:46:38.251Z,5.60
2024-03-25T05:49:43.926Z,5.00
2024-03-25T05:52:49.132Z,5.90
2024-03-25T05:55:54.303Z,5.60
2024-03-25T05:59:00.038Z,6.00
2024-03-25T06:02:05.752Z,4.50
2024-03-25T06:05:12.040Z,4.90
2024-03-25T06:08:21.906Z,6.50
2024-03-25T06:14:31.197Z,6.90
2024-03-25T06:17:36.553Z,5.70
2024-03-25T06:20:41.956Z,5.80
2024-03-25T06:23:47.249Z,6.20
2024-03-25T06:26:52.602Z,5.50
2024-03-25T06:30:18.239Z,5.20
2024-03-25T06:33:41.169Z,5.50
2024-03-25T06:36:46.581Z,4.70
2024-03-25T06:39:52.056Z,6.70
2024-03-25T06:42:57.464Z,7.00
2024-03-25T06:46:03.199Z,5.00
2024-03-25T06:49:08.744Z,6.60
2024-03-25T06:52:14.377Z,5.90
2024-03-25T06:55:23.369Z,5.30
2024-03-25T06:58:30.352Z,6.20
2024-03-25T07:01:35.699Z,5.30
2024-03-25T07:04:41.062Z,5.70
2024-03-25T07:07:46.687Z,5.80
2024-03-25T07:10:52.173Z,5.90
2024-03-25T07:13:57.652Z,6.00
2024-03-25T07:17:04.126Z,7.70
2024-03-25T07:20:12.204Z,5.60
2024-03-25T07:23:17.723Z,4.90
2024-03-25T07:26:23.053Z,6.30
2024-03-25T07:29:28.473Z,6.00
2024-03-25T07:32:33.736Z,7.30
2024-03-25T07:35:39.015Z,5.70
2024-03-25T07:38:44.276Z,7.00
2024-03-25T07:41:49.877Z,5.80
2024-03-25T07:44:55.185Z,5.60
2024-03-25T07:48:00.611Z,5.70
2024-03-25T07:51:08.083Z,5.90
2024-03-25T07:54:17.775Z,6.30
2024-03-25T07:57:23.708Z,6.30
2024-03-25T08:00:28.939Z,5.80
2024-03-25T08:03:34.673Z,6.00
2024-03-25T08:06:40.060Z,5.70
2024-03-25T08:09:45.967Z,6.00
2024-03-25T08:12:51.846Z,5.90
2024-03-25T08:15:57.094Z,5.70
2024-03-25T08:19:02.523Z,5.50
2024-03-25T08:22:08.073Z,5.50
2024-03-25T08:25:13.430Z,7.30
2024-03-25T08:28:18.814Z,6.60
2024-03-25T08:31:24.290Z,7.00
2024-03-25T08:34:29.726Z,7.00
2024-03-25T08:37:35.332Z,5.20
2024-03-25T08:40:41.587Z,7.30
2024-03-25T08:43:48.415Z,5.40
2024-03-25T08:46:53.747Z,5.90
2024-03-25T08:49:59.371Z,6.00
2024-03-25T08:53:05.850Z,5.70
2024-03-25T08:56:11.272Z,6.60
2024-03-25T08:59:16.768Z,6.80
2024-03-25T09:02:22.512Z,6.40
2024-03-25T09:05:27.960Z,6.40
2024-03-25T09:08:53.321Z,5.60
2024-03-25T09:11:58.807Z,6.20
2024-03-25T09:15:04.564Z,6.10
2024-03-25T09:18:09.974Z,4.80
2024-03-25T09:21:15.731Z,5.80
2024-03-25T09:24:21.197Z,6.40
2024-03-25T09:27:26.386Z,5.70
2024-03-25T09:30:32.124Z,5.90
2024-03-25T09:33:37.366Z,5.60
2024-03-25T09:36:42.564Z,5.40
2024-03-25T09:39:48.326Z,5.00
2024-03-25T09:42:59.470Z,6.20
2024-03-25T09:46:05.146Z,5.50
2024-03-25T09:49:10.549Z,6.10
2024-03-25T09:52:16.232Z,8.70
2024-03-25T09:55:21.528Z,5.60
2024-03-25T09:58:28.153Z,5.70
2024-03-25T10:01:33.432Z,5.90
2024-03-25T10:04:46.005Z,5.20
2024-03-25T10:07:52.805Z,10.50
2024-03-25T10:11:00.758Z,5.40
2024-03-25T10:14:06.101Z,7.10
2024-03-25T10:17:11.858Z,6.50
2024-03-25T10:20:18.255Z,5.60
2024-03-25T10:23:25.098Z,5.90
2024-03-25T10:26:32.361Z,5.30
2024-03-25T10:29:38.003Z,5.30
2024-03-25T10:32:43.435Z,6.20
2024-03-25T10:35:51.323Z,4.30
2024-03-25T10:38:58.904Z,6.40
2024-03-25T10:42:05.796Z,5.70
2024-03-25T10:45:12.476Z,4.90
2024-03-25T10:48:22.015Z,5.50
2024-03-25T10:51:27.462Z,5.40
2024-03-25T10:54:34.045Z,4.40
2024-03-25T10:57:40.113Z,5.20
2024-03-25T11:00:46.825Z,5.40
2024-03-25T11:03:53.036Z,7.40
2024-03-25T11:06:58.406Z,7.10
2024-03-25T11:10:08.656Z,5.90
2024-03-25T11:13:19.479Z,6.20
2024-03-25T11:16:32.546Z,4.20
2024-03-25T11:19:39.109Z,5.60
2024-03-25T11:22:52.756Z,4.10
2024-03-25T11:26:02.011Z,4.40
2024-03-25T11:29:07.683Z,6.00
2024-03-25T11:32:13.188Z,7.30
2024-03-25T11:35:18.497Z,6.00
2024-03-25T11:38:24.095Z,7.20
2024-03-25T11:41:30.010Z,7.20
2024-03-25T11:44:35.298Z,8.20
2024-03-25T11:47:40.696Z,6.30
2024-03-25T11:50:48.737Z,6.20
2024-03-25T11:53:54.421Z,5.70
2024-03-25T11:57:00.152Z,5.50
2024-03-25T12:00:06.934Z,4.00
2024-03-25T12:03:12.894Z,4.40
2024-03-25T12:06:18.187Z,5.10
2024-03-25T12:09:41.510Z,5.40
2024-03-25T12:12:46.962Z,5.50
2024-03-25T12:15:53.659Z,5.70
2024-03-25T12:18:59.539Z,4.90
2024-03-25T12:22:06.609Z,6.80
2024-03-25T12:25:15.740Z,5.20
2024-03-25T12:28:21.057Z,5.10
2024-03-25T12:31:27.934Z,5.50
2024-03-25T12:34:33.415Z,5.20
2024-03-25T12:37:39.745Z,5.30
2024-03-25T12:40:45.154Z,5.70
2024-03-25T12:43:51.271Z,5.90
2024-03-25T12:47:00.056Z,5.70
2024-03-25T12:50:08.018Z,6.40
2024-03-25T12:53:20.858Z,5.40
2024-03-25T12:56:27.418Z,8.00
2024-03-25T12:59:32.721Z,5.70
2024-03-25T13:02:39.869Z,5.00
2024-03-25T13:05:46.893Z,5.20
2024-03-25T13:08:52.355Z,4.60
2024-03-25T13:11:57.648Z,7.30
2024-03-25T13:15:04.687Z,5.60
2024-03-25T13:18:10.093Z,6.20
2024-03-25T13:21:15.819Z,5.70
2024-03-25T13:24:21.103Z,4.90
2024-03-25T13:27:27.221Z,6.00
2024-03-25T13:30:33.626Z,5.20
2024-03-25T13:33:39.216Z,5.70
2024-03-25T13:36:44.470Z,6.00
2024-03-25T13:39:51.030Z,5.60
2024-03-25T13:42:56.600Z,6.10
2024-03-25T13:46:02.239Z,5.60
2024-03-25T13:49:07.683Z,5.10
2024-03-25T13:52:13.010Z,5.20
2024-03-25T13:55:18.540Z,4.90
2024-03-25T13:58:23.967Z,5.50
2024-03-25T14:01:29.350Z,5.70
2024-03-25T14:04:34.765Z,4.70
2024-03-25T14:07:40.128Z,6.10
2024-03-25T14:10:46.146Z,4.80
2024-03-25T14:13:51.730Z,5.10
2024-03-25T14:16:57.118Z,6.70
2024-03-25T14:20:07.319Z,6.60
2024-03-25T14:23:12.786Z,5.90
2024-03-25T14:26:18.107Z,4.40
2024-03-25T14:29:23.776Z,4.80
2024-03-25T14:32:29.161Z,5.10
2024-03-25T14:35:35.375Z,5.30
2024-03-25T14:38:41.286Z,4.80
2024-03-25T14:41:46.847Z,5.50
2024-03-25T14:44:52.164Z,5.70
2024-03-25T14:47:57.497Z,4.60
2024-03-25T14:51:03.159Z,4.80
2024-03-25T14:54:08.902Z,5.40
2024-03-25T14:57:14.231Z,7.00
2024-03-25T15:00:21.725Z,4.60
2024-03-25T15:03:27.174Z,5.80
2024-03-25T15:06:33.548Z,4.70
2024-03-25T15:09:39.055Z,5.50
2024-03-25T15:12:44.368Z,5.40
2024-03-25T15:15:49.917Z,6.20
2024-03-25T15:18:55.994Z,8.10
2024-03-25T15:22:01.590Z,4.50
2024-03-25T15:25:08.812Z,6.20
2024-03-25T15:28:14.165Z,10.90
2024-03-25T15:31:20.295Z,7.20
2024-03-25T15:34:26.488Z,7.70
2024-03-25T15:37:32.914Z,4.80
2024-03-25T15:40:42.406Z,4.60
2024-03-25T15:43:49.999Z,5.80
2024-03-25T15:46:56.114Z,5.10
2024-03-25T15:50:02.307Z,5.30
2024-03-25T15:53:11.030Z,5.60
2024-03-25T15:56:16.924Z,6.80
2024-03-25T15:59:23.144Z,5.70
2024-03-25T16:02:29.975Z,6.10
2024-03-25T16:05:36.774Z,5.20
2024-03-25T16:08:46.075Z,5.50
2024-03-25T16:11:53.678Z,5.20
2024-03-25T16:15:01.626Z,8.20
2024-03-25T16:18:08.719Z,6.50
2024-03-25T16:21:21.561Z,6.50
2024-03-25T16:24:27.363Z,10.80
2024-03-25T16:27:32.973Z,9.60
2024-03-25T16:30:40.675Z,6.90
2024-03-25T16:33:46.018Z,6.60
2024-03-25T16:36:52.301Z,10.40
2024-03-25T16:39:59.174Z,10.50
2024-03-25T16:43:06.118Z,8.50
2024-03-25T16:46:12.288Z,7.70
2024-03-25T16:49:18.965Z,7.80
2024-03-25T16:52:26.263Z,7.10
2024-03-25T16:55:32.410Z,6.90
2024-03-25T16:58:38.919Z,8.40
2024-03-25T17:01:44.350Z,9.90
2024-03-25T17:04:49.706Z,19.80
2024-03-25T17:07:55.920Z,12.00
2024-03-25T17:11:01.622Z,8.90
2024-03-25T17:14:07.799Z,6.30
2024-03-25T17:17:13.593Z,6.20
2024-03-25T17:20:19.189Z,5.50
2024-03-25T17:23:24.699Z,6.20
2024-03-25T17:26:30.674Z,7.00
2024-03-25T17:29:36.109Z,5.60
2024-03-25T17:32:42.496Z,5.90
2024-03-25T17:35:47.828Z,6.50
2024-03-25T17:38:54.411Z,6.10
2024-03-25T17:42:00.472Z,6.10
2024-03-25T17:45:06.513Z,6.50
2024-03-25T17:48:12.445Z,6.50
2024-03-25T17:51:17.881Z,7.20
2024-03-25T17:54:23.226Z,6.70
2024-03-25T17:57:28.557Z,7.60
2024-03-25T18:00:34.934Z,9.20
2024-03-25T18:03:40.635Z,8.90
2024-03-25T18:06:47.316Z,10.90
2024-03-25T18:09:53.260Z,9.90
2024-03-25T18:13:00.039Z,8.80
2024-03-25T18:16:05.976Z,7.80
2024-03-25T18:19:11.839Z,8.30
2024-03-25T18:22:17.275Z,7.90
2024-03-25T18:25:22.651Z,7.80
2024-03-25T18:28:28.118Z,7.90
2024-03-25T18:31:34.145Z,9.00
2024-03-25T18:34:40.084Z,7.50
2024-03-25T18:37:45.413Z,7.70
2024-03-25T18:40:51.423Z,8.80
2024-03-25T18:43:56.758Z,7.40
2024-03-25T18:47:02.443Z,6.90
2024-03-25T18:50:09.705Z,7.90
2024-03-25T18:53:15.177Z,7.00
2024-03-25T18:56:20.748Z,7.30
2024-03-25T18:59:26.259Z,7.40
2024-03-25T19:02:31.880Z,8.30
2024-03-25T19:05:37.494Z,8.10
2024-03-25T19:08:44.225Z,7.20
2024-03-25T19:11:49.788Z,7.60
2024-03-25T19:14:55.041Z,7.80
2024-03-25T19:18:02.273Z,7.90
2024-03-25T19:21:08.378Z,6.50
2024-03-25T19:24:14.169Z,8.00
2024-03-25T19:27:20.699Z,8.60
2024-03-25T19:30:26.261Z,7.80
2024-03-25T19:33:31.897Z,7.50
2024-03-25T19:36:37.274Z,8.80
2024-03-25T19:39:45.594Z,7.30
2024-03-25T19:42:51.066Z,7.40
2024-03-25T19:45:56.879Z,7.30
2024-03-25T19:49:03.115Z,7.90
2024-03-25T19:52:08.918Z,8.40
2024-03-25T19:55:14.570Z,7.70
2024-03-25T19:58:20.356Z,8.60
2024-03-25T20:01:26.493Z,8.40
2024-03-25T20:04:32.145Z,7.40
2024-03-25T20:07:37.551Z,9.10
2024-03-25T20:10:42.990Z,7.60
2024-03-25T20:13:48.690Z,6.40
2024-03-25T20:16:53.930Z,6.60
2024-03-25T20:19:59.708Z,7.10
2024-03-25T20:23:05.171Z,6.20
2024-03-25T20:26:11.004Z,7.20
2024-03-25T20:29:16.335Z,6.40
2024-03-25T20:32:22.215Z,7.40
2024-03-25T20:35:27.882Z,6.70
2024-03-25T20:38:33.905Z,6.70
2024-03-25T20:41:39.384Z,7.80
2024-03-25T20:44:44.892Z,7.80
2024-03-25T20:47:51.301Z,8.20
2024-03-25T20:50:56.881Z,8.30
2024-03-25T20:54:02.778Z,6.90
2024-03-25T20:57:08.302Z,5.90
2024-03-25T21:00:15.531Z,6.30
2024-03-25T21:03:21.941Z,6.30
2024-03-25T21:06:27.452Z,6.10
2024-03-25T21:09:32.912Z,7.70
2024-03-25T21:12:38.784Z,7.50
2024-03-25T21:15:44.603Z,6.70
2024-03-25T21:18:50.501Z,6.40
2024-03-25T21:21:56.212Z,6.60
2024-03-25T21:25:01.921Z,8.00
2024-03-25T21:28:07.849Z,7.60
2024-03-25T21:31:13.206Z,7.60
2024-03-25T21:34:20.151Z,8.30
2024-03-25T21:37:26.426Z,11.50
2024-03-25T21:40:31.951Z,11.90
2024-03-25T21:43:37.181Z,8.80
2024-03-25T21:46:43.198Z,7.80
2024-03-25T21:49:49.299Z,7.90
2024-03-25T21:52:54.899Z,8.00
2024-03-25T21:56:02.343Z,8.40
2024-03-25T21:59:08.077Z,8.50
2024-03-25T22:02:13.474Z,6.70
2024-03-25T22:05:18.964Z,6.80
2024-03-25T22:08:24.252Z,7.30
2024-03-25T22:11:29.595Z,6.10
2024-03-25T22:14:35.322Z,6.20
2024-03-25T22:17:40.656Z,6.40
2024-03-25T22:20:45.976Z,6.70
2024-03-25T22:23:51.526Z,6.30
2024-03-25T22:26:56.965Z,6.60
2024-03-25T22:30:02.328Z,6.50
2024-03-25T22:33:09.235Z,6.20
2024-03-25T22:36:15.329Z,7.50
2024-03-25T22:39:20.717Z,5.40
2024-03-25T22:42:26.190Z,5.90
2024-03-25T22:45:31.405Z,5.60
2024-03-25T22:48:36.781Z,5.90
2024-03-25T22:51:42.126Z,5.80
2024-03-25T22:54:47.363Z,5.70
2024-03-25T22:57:52.926Z,5.30
2024-03-25T23:00:58.573Z,5.10
2024-03-25T23:04:04.297Z,5.60
2024-03-25T23:07:09.978Z,4.90
2024-03-25T23:10:15.428Z,5.60
2024-03-25T23:13:21.280Z,6.20
2024-03-25T23:16:29.196Z,6.10
2024-03-25T23:19:36.159Z,6.50
2024-03-25T23:22:41.401Z,6.80
2024-03-25T23:25:47.760Z,8.50
2024-03-25T23:28:52.991Z,10.80
2024-03-25T23:31:58.593Z,8.00
2024-03-25T23:35:04.257Z,9.40
2024-03-25T23:38:09.581Z,7.50
2024-03-25T23:41:15.005Z,7.50
2024-03-25T23:44:20.402Z,6.10
2024-03-25T23:47:26.158Z,6.90
2024-03-25T23:50:31.315Z,6.30
2024-03-25T23:53:36.736Z,5.80
2024-03-25T23:56:42.253Z,5.60
2024-03-25T23:59:47.712Z,6.30
